Time;durP1;ratioP1;P1;durP2;ratioP2;P2;SDS_P1;SDS_P2;PMS_P1;PMS_P2;Temp;Humidity;BMP_temperature;BMP_pressure;BME280_temperature;BME280_humidity;BME280_pressure;Samples;Min_cycle;Max_cycle;Signal;HPM_P1;HPM_P2
2022/07/28 00:00:27;;;;;;;1.25;0.50;;;14.50;99.90;;;;;;5043303;28;20202;-73
2022/07/28 00:02:58;;;;;;;1.15;0.70;;;14.60;99.90;;;;;;5046569;28;20218;-71
2022/07/28 00:05:29;;;;;;;1.23;0.70;;;14.60;99.90;;;;;;5033337;28;20194;-70
2022/07/28 00:07:59;;;;;;;2.03;0.80;;;14.70;99.90;;;;;;5035082;28;20190;-71
2022/07/28 00:10:32;;;;;;;2.95;0.63;;;14.90;99.90;;;;;;5041193;28;20209;-71
2022/07/28 00:13:03;;;;;;;0.75;0.70;;;15.00;99.90;;;;;;5046443;28;20642;-71
2022/07/28 00:15:33;;;;;;;1.33;0.57;;;15.10;99.90;;;;;;5040339;28;20193;-72
2022/07/28 00:18:04;;;;;;;0.88;0.50;;;15.20;99.90;;;;;;5034631;28;20190;-73
2022/07/28 00:20:35;;;;;;;1.15;0.82;;;15.30;99.90;;;;;;5046369;28;20190;-78
2022/07/28 00:23:05;;;;;;;0.90;0.40;;;15.40;99.90;;;;;;5020625;28;20260;-71
2022/07/28 00:25:38;;;;;;;0.60;0.50;;;15.50;99.90;;;;;;5034475;28;20605;-71
2022/07/28 00:28:09;;;;;;;1.08;0.70;;;15.60;99.90;;;;;;5045167;28;20760;-76
2022/07/28 00:30:39;;;;;;;0.75;0.43;;;15.80;99.90;;;;;;5041703;28;20196;-76
2022/07/28 00:33:10;;;;;;;1.25;0.50;;;15.90;99.90;;;;;;5042915;28;20281;-71
2022/07/28 00:35:41;;;;;;;0.77;0.60;;;16.00;99.90;;;;;;5034650;28;20194;-71
2022/07/28 00:38:11;;;;;;;0.77;0.30;;;16.10;99.90;;;;;;5034220;28;20198;-71
2022/07/28 00:43:31;;;;;;;0.80;0.50;;;16.30;99.90;;;;;;5041282;28;20571;-71
2022/07/28 00:46:05;;;;;;;1.63;0.70;;;16.50;99.90;;;;;;5046217;28;20191;-75
2022/07/28 00:48:38;;;;;;;0.82;0.40;;;16.50;99.90;;;;;;5045898;28;20189;-71
2022/07/28 00:51:10;;;;;;;1.08;0.50;;;16.60;99.90;;;;;;5013573;28;20560;-70
2022/07/28 00:53:41;;;;;;;0.98;0.70;;;16.60;99.90;;;;;;5029962;28;20196;-71
2022/07/28 00:56:14;;;;;;;2.38;0.52;;;16.70;99.90;;;;;;5053687;28;20186;-71
2022/07/28 00:58:46;;;;;;;1.15;0.47;;;16.80;99.90;;;;;;5039484;28;20186;-71
2022/07/28 01:01:18;;;;;;;0.80;0.40;;;16.80;99.90;;;;;;5034454;28;20192;-70
2022/07/28 01:03:51;;;;;;;0.75;0.45;;;16.90;99.90;;;;;;5023510;28;20214;-70
2022/07/28 01:07:01;;;;;;;2.80;0.52;;;17.00;99.90;;;;;;5033733;28;20605;-72
2022/07/28 01:09:43;;;;;;;2.78;0.57;;;17.00;99.90;;;;;;4946678;28;20201;-72
2022/07/28 01:12:28;;;;;;;1.83;0.60;;;17.20;99.90;;;;;;5035860;28;20212;-73
2022/07/28 01:15:09;;;;;;;1.77;0.45;;;17.30;99.90;;;;;;5031539;28;20196;-71
2022/07/28 01:17:46;;;;;;;1.08;0.22;;;17.40;99.90;;;;;;5013792;28;20592;-71
2022/07/28 01:20:20;;;;;;;0.63;0.50;;;17.50;99.90;;;;;;5029717;28;20190;-72
2022/07/28 01:23:07;;;;;;;1.77;0.40;;;17.60;99.90;;;;;;5039421;28;20240;-73
2022/07/28 01:25:48;;;;;;;1.55;0.40;;;17.70;99.90;;;;;;5046487;28;20285;-71
2022/07/28 01:28:30;;;;;;;0.60;0.28;;;17.80;99.90;;;;;;5032305;28;20642;-75
2022/07/28 01:31:07;;;;;;;1.02;0.35;;;17.90;99.90;;;;;;5041673;28;20202;-75
2022/07/28 01:33:43;;;;;;;1.83;0.40;;;17.80;99.90;;;;;;5034131;28;20218;-74
2022/07/28 01:36:18;;;;;;;0.22;0.22;;;17.90;99.90;;;;;;5041376;28;20259;-74
2022/07/28 01:38:50;;;;;;;1.08;0.40;;;17.90;99.90;;;;;;5043941;28;20706;-76
2022/07/28 01:41:23;;;;;;;2.78;0.88;;;17.90;99.90;;;;;;5041021;28;20206;-74
2022/07/28 01:44:00;;;;;;;0.95;0.30;;;18.00;99.90;;;;;;5034090;28;20221;-74
2022/07/28 01:46:33;;;;;;;2.65;0.70;;;18.00;99.90;;;;;;5047578;28;20194;-73
2022/07/28 01:49:05;;;;;;;0.85;0.30;;;18.10;99.90;;;;;;5033126;28;20190;-73
2022/07/28 01:51:37;;;;;;;1.02;0.50;;;18.20;99.90;;;;;;5032958;28;20223;-73
2022/07/28 01:54:10;;;;;;;2.78;1.10;;;18.30;99.90;;;;;;5039398;28;20194;-74
2022/07/28 01:56:43;;;;;;;0.60;0.30;;;18.30;99.90;;;;;;5044854;28;20194;-74
2022/07/28 01:59:16;;;;;;;1.67;0.38;;;18.30;99.90;;;;;;5033955;28;20191;-74
2022/07/28 02:01:50;;;;;;;0.88;0.40;;;18.30;99.90;;;;;;5039234;28;20201;-73
2022/07/28 02:04:23;;;;;;;1.48;0.40;;;18.40;99.90;;;;;;5032694;28;20214;-74
2022/07/28 02:06:55;;;;;;;0.52;0.30;;;18.40;99.90;;;;;;5032330;28;20197;-75
2022/07/28 02:09:27;;;;;;;0.45;0.45;;;18.40;99.90;;;;;;5035652;28;20189;-74
2022/07/28 02:11:59;;;;;;;0.17;0.17;;;18.50;99.90;;;;;;5041538;28;20208;-74
2022/07/28 02:14:31;;;;;;;2.78;0.50;;;18.60;99.90;;;;;;5035350;28;20187;-74
2022/07/28 02:17:09;;;;;;;0.85;0.40;;;18.60;99.90;;;;;;5041334;28;20796;-75
2022/07/28 02:19:42;;;;;;;0.40;0.30;;;18.60;99.90;;;;;;5032409;28;20586;-75
2022/07/28 02:22:13;;;;;;;1.27;0.30;;;18.70;99.90;;;;;;5032166;28;20194;-73
2022/07/28 02:24:44;;;;;;;0.40;0.30;;;18.80;99.90;;;;;;5044504;28;20213;-74
2022/07/28 02:27:21;;;;;;;1.17;0.50;;;18.70;99.90;;;;;;5032534;28;20186;-75
2022/07/28 02:29:57;;;;;;;1.95;0.63;;;18.80;99.90;;;;;;5031907;28;20185;-74
2022/07/28 02:32:37;;;;;;;3.10;0.55;;;18.90;99.90;;;;;;5012609;28;20202;-75
2022/07/28 02:35:12;;;;;;;1.20;0.32;;;19.00;99.90;;;;;;5036266;28;20236;-74
2022/07/28 02:37:47;;;;;;;0.95;0.50;;;18.90;99.90;;;;;;5031972;28;20236;-73
2022/07/28 02:40:21;;;;;;;0.73;0.40;;;18.80;99.90;;;;;;5032230;28;20186;-71
2022/07/28 02:42:54;;;;;;;1.30;0.50;;;18.90;99.90;;;;;;5032406;28;20566;-72
2022/07/28 02:45:29;;;;;;;0.55;0.28;;;18.90;99.90;;;;;;5031357;28;20222;-70
2022/07/28 02:48:05;;;;;;;1.55;0.30;;;19.00;99.90;;;;;;5031653;28;20194;-72
2022/07/28 02:50:39;;;;;;;2.20;0.65;;;19.10;99.90;;;;;;5031375;28;20606;-71
2022/07/28 02:53:11;;;;;;;1.75;0.38;;;19.00;99.90;;;;;;5028341;28;20674;-71
2022/07/28 02:55:43;;;;;;;0.22;0.20;;;19.10;99.90;;;;;;5032178;28;20190;-72
2022/07/28 02:58:15;;;;;;;0.85;0.30;;;19.10;99.90;;;;;;5032179;28;20651;-70
2022/07/28 03:00:47;;;;;;;1.95;0.30;;;19.00;99.90;;;;;;5032264;28;20634;-70
2022/07/28 03:03:20;;;;;;;0.77;0.30;;;19.10;99.90;;;;;;5031430;28;20199;-70
2022/07/28 03:05:51;;;;;;;1.67;0.40;;;19.10;99.90;;;;;;5032249;28;20634;-70
2022/07/28 03:08:22;;;;;;;1.58;0.50;;;19.10;99.90;;;;;;5032095;28;20202;-70
2022/07/28 03:11:07;;;;;;;0.30;0.30;;;19.10;99.90;;;;;;5031150;28;20199;-71
2022/07/28 03:13:37;;;;;;;0.55;0.30;;;19.10;99.90;;;;;;5032033;28;20229;-70
2022/07/28 03:16:09;;;;;;;0.80;0.20;;;19.10;99.90;;;;;;5034893;28;20190;-70
2022/07/28 03:18:42;;;;;;;0.20;0.20;;;19.10;99.90;;;;;;5035650;28;20194;-70
2022/07/28 03:21:12;;;;;;;0.50;0.30;;;19.10;99.90;;;;;;5035316;28;20190;-71
2022/07/28 03:23:45;;;;;;;0.63;0.20;;;19.10;99.90;;;;;;5035395;28;20218;-71
2022/07/28 03:26:21;;;;;;;0.30;0.30;;;18.90;99.90;;;;;;5035700;28;20187;-71
2022/07/28 03:28:53;;;;;;;0.65;0.20;;;18.90;99.90;;;;;;5035556;28;20251;-72
2022/07/28 03:31:24;;;;;;;0.20;0.20;;;18.90;99.90;;;;;;5035073;28;20195;-72
2022/07/28 03:33:56;;;;;;;0.70;0.50;;;18.90;99.90;;;;;;5039504;28;20220;-76
2022/07/28 03:36:32;;;;;;;0.98;0.50;;;19.00;99.90;;;;;;5042076;28;20249;-72
2022/07/28 03:39:07;;;;;;;2.53;0.70;;;19.10;99.90;;;;;;5035111;28;20217;-74
2022/07/28 03:41:39;;;;;;;1.13;0.50;;;19.00;99.90;;;;;;5035330;28;20197;-75
2022/07/28 03:44:11;;;;;;;0.28;0.20;;;19.00;99.90;;;;;;5034963;28;20210;-75
2022/07/28 03:46:47;;;;;;;0.25;0.25;;;19.20;99.90;;;;;;5015502;28;20198;-75
2022/07/28 03:49:20;;;;;;;1.13;0.38;;;19.20;99.90;;;;;;5029329;28;20285;-74
2022/07/28 03:51:51;;;;;;;0.60;0.30;;;19.20;99.90;;;;;;5034687;28;20198;-75
2022/07/28 03:54:22;;;;;;;0.70;0.20;;;19.20;99.90;;;;;;5034969;28;20194;-74
2022/07/28 03:56:52;;;;;;;1.75;0.40;;;19.20;99.90;;;;;;5035105;28;20705;-73
2022/07/28 03:59:23;;;;;;;0.63;0.40;;;19.20;99.90;;;;;;5034809;28;20195;-74
2022/07/28 04:01:56;;;;;;;0.85;0.20;;;19.20;99.90;;;;;;5034716;28;20191;-75
2022/07/28 04:04:29;;;;;;;0.30;0.22;;;19.20;99.90;;;;;;5034613;28;20268;-74
2022/07/28 04:06:59;;;;;;;0.55;0.20;;;19.10;99.90;;;;;;5034227;28;20193;-74
2022/07/28 04:09:30;;;;;;;0.60;0.20;;;19.10;99.90;;;;;;5034328;28;20194;-74
2022/07/28 04:12:01;;;;;;;2.67;0.88;;;19.00;99.90;;;;;;5034133;28;20197;-75
2022/07/28 04:14:31;;;;;;;2.45;0.35;;;19.10;99.90;;;;;;5034454;28;20204;-74
2022/07/28 04:17:02;;;;;;;0.68;0.32;;;19.10;99.90;;;;;;5033643;28;20194;-74
2022/07/28 04:19:34;;;;;;;1.52;0.40;;;19.30;99.90;;;;;;5031053;28;20201;-75
2022/07/28 04:22:05;;;;;;;1.58;0.15;;;19.20;99.90;;;;;;5032843;28;20182;-75
2022/07/28 04:24:36;;;;;;;0.45;0.20;;;19.30;99.90;;;;;;5031768;28;20569;-74
2022/07/28 04:27:07;;;;;;;1.50;0.30;;;19.30;99.90;;;;;;5032986;28;20194;-77
2022/07/28 04:29:37;;;;;;;3.60;0.30;;;19.20;99.90;;;;;;5033637;28;20230;-73
2022/07/28 04:32:08;;;;;;;0.60;0.20;;;19.20;99.90;;;;;;5033827;28;20264;-75
2022/07/28 04:34:41;;;;;;;1.45;0.30;;;19.30;99.90;;;;;;5038112;28;20218;-74
2022/07/28 04:37:13;;;;;;;1.70;0.40;;;19.20;99.90;;;;;;5053635;28;20233;-75
2022/07/28 04:39:47;;;;;;;0.40;0.30;;;19.20;99.90;;;;;;5038427;28;20200;-74
2022/07/28 04:42:18;;;;;;;0.30;0.30;;;19.10;99.90;;;;;;5033773;28;20200;-74
2022/07/28 04:44:49;;;;;;;1.20;0.40;;;19.20;99.90;;;;;;5034065;28;20305;-75
2022/07/28 04:47:20;;;;;;;0.93;0.40;;;19.20;99.90;;;;;;5034114;28;20590;-74
2022/07/28 04:49:52;;;;;;;2.50;0.43;;;19.20;99.90;;;;;;5034008;28;20206;-75
2022/07/28 04:52:24;;;;;;;0.90;0.30;;;19.20;99.90;;;;;;5033913;28;20197;-74
2022/07/28 04:54:55;;;;;;;0.50;0.30;;;19.30;99.90;;;;;;5033970;28;20248;-75
2022/07/28 04:57:27;;;;;;;0.45;0.30;;;19.30;99.90;;;;;;5033934;28;20195;-73
2022/07/28 04:59:58;;;;;;;0.88;0.30;;;19.30;99.90;;;;;;5033930;28;20186;-75
2022/07/28 05:02:29;;;;;;;0.77;0.25;;;19.40;99.90;;;;;;5033886;28;20191;-75
2022/07/28 05:05:02;;;;;;;0.50;0.43;;;19.30;99.90;;;;;;5033463;28;20561;-72
2022/07/28 05:07:33;;;;;;;0.55;0.52;;;19.20;99.90;;;;;;5033767;28;20194;-74
2022/07/28 05:10:04;;;;;;;2.05;0.50;;;19.30;99.90;;;;;;5033600;28;20192;-75
2022/07/28 05:12:34;;;;;;;1.23;0.40;;;19.30;99.90;;;;;;5033589;28;20205;-74
2022/07/28 05:15:05;;;;;;;0.20;0.20;;;19.40;99.90;;;;;;5033620;28;20193;-75
2022/07/28 05:17:37;;;;;;;0.73;0.30;;;19.50;99.90;;;;;;5033617;28;20198;-75
2022/07/28 05:20:12;;;;;;;0.60;0.25;;;19.50;99.90;;;;;;5033188;28;20264;-75
2022/07/28 05:22:46;;;;;;;1.13;0.20;;;19.60;99.90;;;;;;5033472;28;20200;-74
2022/07/28 05:25:21;;;;;;;0.73;0.30;;;19.60;99.90;;;;;;5033364;28;20216;-75
2022/07/28 05:27:53;;;;;;;0.68;0.30;;;19.50;99.90;;;;;;5035716;28;20186;-75
2022/07/28 05:30:23;;;;;;;2.20;0.20;;;19.40;99.90;;;;;;5053139;28;20194;-74
2022/07/28 05:32:58;;;;;;;0.68;0.20;;;19.30;99.90;;;;;;5038848;28;20221;-74
2022/07/28 05:35:30;;;;;;;1.55;0.32;;;19.20;99.90;;;;;;5041445;28;20199;-73
2022/07/28 05:38:01;;;;;;;0.40;0.40;;;19.10;99.90;;;;;;5032914;28;20233;-74
2022/07/28 05:40:32;;;;;;;0.88;0.35;;;19.00;99.90;;;;;;5046875;28;20189;-75
2022/07/28 05:43:02;;;;;;;0.77;0.40;;;18.90;99.90;;;;;;5053040;28;20559;-75
2022/07/28 05:45:33;;;;;;;1.67;0.30;;;18.90;99.90;;;;;;5052814;28;20221;-74
2022/07/28 05:48:04;;;;;;;0.25;0.25;;;18.80;99.90;;;;;;5053067;28;20977;-75
2022/07/28 05:50:37;;;;;;;0.40;0.30;;;18.80;99.90;;;;;;5053109;28;20659;-74
2022/07/28 05:53:08;;;;;;;1.20;0.20;;;18.70;99.90;;;;;;5035240;28;20222;-75
2022/07/28 05:55:38;;;;;;;0.35;0.30;;;18.80;99.90;;;;;;5032880;28;20194;-74
2022/07/28 05:58:09;;;;;;;4.07;0.20;;;18.80;99.90;;;;;;5032923;28;20194;-75
2022/07/28 06:00:39;;;;;;;0.90;0.30;;;18.90;99.90;;;;;;5032743;28;20217;-74
2022/07/28 06:03:10;;;;;;;0.20;0.20;;;18.90;99.90;;;;;;5032581;28;20197;-75
2022/07/28 06:05:43;;;;;;;1.17;0.20;;;19.00;99.90;;;;;;5032708;28;20229;-74
2022/07/28 06:08:14;;;;;;;0.30;0.30;;;19.00;99.90;;;;;;5032812;28;20197;-75
2022/07/28 06:11:00;;;;;;;0.43;0.20;;;19.10;99.90;;;;;;5032717;28;20642;-75
2022/07/28 06:13:31;;;;;;;0.32;0.32;;;19.00;99.90;;;;;;5032609;28;20560;-73
2022/07/28 06:16:02;;;;;;;0.52;0.20;;;18.90;99.90;;;;;;5032429;28;20194;-74
2022/07/28 06:18:33;;;;;;;0.30;0.20;;;18.80;99.90;;;;;;5032132;28;20191;-75
2022/07/28 06:21:05;;;;;;;0.20;0.20;;;18.80;99.90;;;;;;5032314;28;20190;-74
2022/07/28 06:23:36;;;;;;;0.30;0.30;;;18.80;99.90;;;;;;5032721;28;20202;-75
2022/07/28 06:26:07;;;;;;;0.60;0.30;;;18.80;99.90;;;;;;5032613;28;20226;-74
2022/07/28 06:28:37;;;;;;;0.98;0.32;;;18.70;99.90;;;;;;5032169;28;20206;-72
2022/07/28 06:31:08;;;;;;;0.70;0.30;;;18.60;99.90;;;;;;5032211;28;20194;-75
2022/07/28 06:33:39;;;;;;;1.73;0.45;;;18.60;99.90;;;;;;5034991;28;20693;-75
2022/07/28 06:36:11;;;;;;;0.95;0.30;;;18.50;99.90;;;;;;5035844;28;20237;-77
2022/07/28 06:38:42;;;;;;;1.42;0.40;;;18.40;99.90;;;;;;5031869;28;20591;-78
2022/07/28 06:41:13;;;;;;;1.63;0.68;;;18.30;99.90;;;;;;5032739;28;20187;-77
2022/07/28 06:43:44;;;;;;;0.30;0.30;;;18.20;99.90;;;;;;5032482;28;20191;-76
2022/07/28 06:46:18;;;;;;;1.15;0.40;;;18.10;99.90;;;;;;5031766;28;20218;-76
2022/07/28 06:48:48;;;;;;;1.92;0.73;;;18.00;99.90;;;;;;5031868;28;20190;-77
2022/07/28 06:51:22;;;;;;;1.73;0.50;;;17.90;99.90;;;;;;5035347;28;20194;-77
2022/07/28 06:53:54;;;;;;;0.98;0.50;;;17.80;99.90;;;;;;5035900;28;20198;-78
2022/07/28 06:56:25;;;;;;;1.35;0.65;;;17.70;99.90;;;;;;5035433;28;20551;-77
2022/07/28 06:58:55;;;;;;;3.70;0.63;;;17.60;99.90;;;;;;5035493;28;20664;-77
2022/07/28 07:01:26;;;;;;;2.13;0.80;;;17.60;99.90;;;;;;5035923;28;20191;-77
2022/07/28 07:03:57;;;;;;;1.77;0.75;;;17.50;99.90;;;;;;5036014;28;20634;-77
2022/07/28 07:06:29;;;;;;;0.95;0.50;;;17.40;99.90;;;;;;5034944;28;20215;-77
2022/07/28 07:09:00;;;;;;;0.88;0.60;;;17.40;99.90;;;;;;5035883;28;20182;-77
2022/07/28 07:11:31;;;;;;;2.83;1.08;;;17.30;99.90;;;;;;5035384;28;20245;-73
2022/07/28 07:14:02;;;;;;;1.10;0.80;;;17.20;99.90;;;;;;5015853;28;20223;-78
2022/07/28 07:16:33;;;;;;;1.30;0.90;;;17.20;99.90;;;;;;5016059;28;20198;-77
2022/07/28 07:19:03;;;;;;;1.33;0.70;;;17.20;99.90;;;;;;5030691;28;20195;-78
2022/07/28 07:21:36;;;;;;;1.77;0.65;;;17.10;99.90;;;;;;5035258;28;20190;-75
2022/07/28 07:24:07;;;;;;;0.95;0.60;;;17.00;99.90;;;;;;5035766;28;20638;-77
2022/07/28 07:26:38;;;;;;;0.65;0.50;;;17.00;99.90;;;;;;5035085;28;20686;-77
2022/07/28 07:29:09;;;;;;;2.33;0.77;;;17.00;99.90;;;;;;5015711;28;20199;-78
2022/07/28 07:31:40;;;;;;;1.75;0.80;;;17.00;99.90;;;;;;5015711;28;20195;-77
2022/07/28 07:34:11;;;;;;;1.42;0.90;;;16.90;99.90;;;;;;5036039;28;20209;-77
2022/07/28 07:36:43;;;;;;;1.33;0.80;;;16.90;99.90;;;;;;5035738;28;20238;-76
2022/07/28 07:39:14;;;;;;;1.42;0.70;;;16.80;99.90;;;;;;5035495;28;20194;-77
2022/07/28 07:41:45;;;;;;;1.60;0.50;;;16.80;99.90;;;;;;5035409;28;20191;-77
2022/07/28 07:44:15;;;;;;;1.00;0.50;;;16.80;99.90;;;;;;5034872;28;20194;-77
2022/07/28 07:46:46;;;;;;;0.40;0.40;;;16.80;99.90;;;;;;5035150;28;20233;-78
2022/07/28 07:49:17;;;;;;;1.75;0.50;;;16.80;99.90;;;;;;5033941;28;20193;-77
2022/07/28 07:51:50;;;;;;;1.42;0.57;;;16.70;99.90;;;;;;5032791;28;20700;-76
2022/07/28 07:54:20;;;;;;;1.33;0.50;;;16.70;99.90;;;;;;5031540;28;20197;-76
2022/07/28 07:56:51;;;;;;;1.50;0.68;;;16.70;99.90;;;;;;5034566;28;20205;-76
2022/07/28 07:59:22;;;;;;;1.02;0.50;;;16.60;99.90;;;;;;5034187;28;20202;-76
2022/07/28 08:01:54;;;;;;;1.42;0.60;;;16.60;99.90;;;;;;5034921;28;20197;-75
2022/07/28 08:04:25;;;;;;;0.70;0.60;;;16.60;99.90;;;;;;5034725;28;20658;-75
2022/07/28 08:06:58;;;;;;;1.38;0.70;;;16.60;99.90;;;;;;5034753;28;20217;-75
2022/07/28 08:09:29;;;;;;;2.17;0.80;;;16.60;99.90;;;;;;5033610;28;20182;-73
2022/07/28 08:11:59;;;;;;;1.40;0.80;;;16.50;99.90;;;;;;5034709;28;20201;-71
2022/07/28 08:14:30;;;;;;;3.88;1.20;;;16.40;99.90;;;;;;5034346;28;20194;-71
2022/07/28 08:17:00;;;;;;;1.45;0.90;;;16.40;99.90;;;;;;5034539;28;20194;-72
2022/07/28 08:19:31;;;;;;;1.52;0.95;;;16.30;99.90;;;;;;5034512;28;20194;-73
2022/07/28 08:22:04;;;;;;;1.88;0.80;;;16.20;99.90;;;;;;5034637;28;20213;-72
2022/07/28 08:24:35;;;;;;;1.60;0.98;;;16.30;99.90;;;;;;5034178;28;20603;-73
2022/07/28 08:27:06;;;;;;;1.30;0.90;;;16.20;99.90;;;;;;5034260;28;20264;-73
2022/07/28 08:29:37;;;;;;;1.92;1.02;;;16.20;99.90;;;;;;5034489;28;20194;-76
2022/07/28 08:32:07;;;;;;;3.55;1.38;;;16.10;99.90;;;;;;5042249;28;20185;-72
2022/07/28 08:34:38;;;;;;;3.13;1.30;;;16.00;99.90;;;;;;5039124;28;20229;-74
2022/07/28 08:37:11;;;;;;;2.67;1.10;;;16.00;99.90;;;;;;5034231;28;20288;-72
2022/07/28 08:39:42;;;;;;;2.38;1.13;;;15.90;99.90;;;;;;5037756;28;20641;-73
2022/07/28 08:42:16;;;;;;;2.38;1.33;;;15.90;99.90;;;;;;5038876;28;20198;-72
2022/07/28 08:44:55;;;;;;;2.15;1.10;;;15.90;99.90;;;;;;5034230;28;20649;-73
2022/07/28 08:47:28;;;;;;;1.52;1.10;;;15.80;99.90;;;;;;5044150;28;20623;-75
2022/07/28 08:50:00;;;;;;;2.28;1.50;;;15.80;99.90;;;;;;5026039;28;20195;-73
2022/07/28 08:52:33;;;;;;;3.42;1.30;;;15.80;99.90;;;;;;5034455;28;20222;-73
2022/07/28 08:55:06;;;;;;;3.13;1.40;;;15.70;99.90;;;;;;5034149;28;20210;-72
2022/07/28 08:57:39;;;;;;;1.38;0.98;;;15.70;99.90;;;;;;5033577;28;20302;-73
2022/07/28 09:00:11;;;;;;;2.00;0.90;;;15.70;99.90;;;;;;5030074;28;20206;-72
2022/07/28 09:02:45;;;;;;;2.88;0.70;;;15.70;99.90;;;;;;5033143;28;20194;-73
2022/07/28 09:05:16;;;;;;;2.20;0.80;;;15.70;99.90;;;;;;5033651;28;20252;-74
2022/07/28 09:07:51;;;;;;;1.10;0.80;;;15.70;99.90;;;;;;5014023;28;20191;-71
2022/07/28 09:10:21;;;;;;;1.98;1.02;;;15.70;99.90;;;;;;5016078;28;20224;-72
2022/07/28 09:12:52;;;;;;;2.55;0.95;;;15.60;99.90;;;;;;5032038;28;20186;-73
2022/07/28 09:15:23;;;;;;;2.58;1.35;;;15.60;99.90;;;;;;5033452;28;20585;-71
2022/07/28 09:17:54;;;;;;;0.93;0.80;;;15.50;99.90;;;;;;5033545;28;20209;-72
2022/07/28 09:20:25;;;;;;;1.38;0.90;;;15.40;99.90;;;;;;5032857;28;20190;-72
2022/07/28 09:23:02;;;;;;;1.70;0.90;;;15.40;99.90;;;;;;5034109;28;20190;-72
2022/07/28 09:25:33;;;;;;;1.73;0.90;;;15.30;99.90;;;;;;5044188;28;20214;-72
2022/07/28 09:28:10;;;;;;;2.25;1.10;;;15.30;99.90;;;;;;5015791;28;20201;-72
2022/07/28 09:30:42;;;;;;;2.45;1.20;;;15.20;99.90;;;;;;5038195;28;20193;-72
2022/07/28 09:33:18;;;;;;;1.27;1.10;;;15.20;99.90;;;;;;5035072;28;20217;-73
2022/07/28 09:35:51;;;;;;;1.80;1.25;;;15.20;99.90;;;;;;5040179;28;20229;-72
2022/07/28 09:38:25;;;;;;;2.40;1.00;;;15.10;99.90;;;;;;5037861;28;20715;-74
2022/07/28 09:41:03;;;;;;;2.53;1.08;;;15.10;99.90;;;;;;5045098;28;20196;-73
2022/07/28 09:43:37;;;;;;;2.40;0.88;;;15.10;99.90;;;;;;5036275;28;20190;-77
2022/07/28 09:46:10;;;;;;;1.65;0.80;;;15.10;99.90;;;;;;5040652;28;20218;-76
2022/07/28 09:48:53;;;;;;;0.50;0.50;;;15.10;99.90;;;;;;5033015;28;20642;-74
2022/07/28 09:51:26;;;;;;;1.23;0.50;;;15.10;99.90;;;;;;5039496;28;20232;-72
2022/07/28 09:54:10;;;;;;;0.75;0.60;;;15.10;99.90;;;;;;5040069;28;20197;-71
2022/07/28 09:56:42;;;;;;;0.57;0.52;;;15.00;99.90;;;;;;5039841;28;20665;-72
2022/07/28 09:59:13;;;;;;;2.78;0.70;;;15.00;99.90;;;;;;5043683;28;20597;-72
2022/07/28 10:01:54;;;;;;;2.45;0.70;;;15.10;99.90;;;;;;5040724;28;20202;-73
2022/07/28 10:04:36;;;;;;;0.65;0.65;;;15.00;99.90;;;;;;5038789;28;20186;-72
2022/07/28 10:07:08;;;;;;;0.70;0.70;;;15.00;99.90;;;;;;5044279;28;20214;-75
2022/07/28 10:09:42;;;;;;;2.55;0.80;;;14.90;99.90;;;;;;5048832;28;20569;-73
2022/07/28 10:12:20;;;;;;;1.50;0.75;;;14.80;99.90;;;;;;5050862;28;20190;-72
2022/07/28 10:14:51;;;;;;;1.23;0.70;;;14.80;99.90;;;;;;5032138;28;20190;-74
2022/07/28 10:17:30;;;;;;;1.17;0.70;;;14.70;99.90;;;;;;5052511;28;20200;-72
2022/07/28 10:20:01;;;;;;;1.38;0.88;;;14.70;99.90;;;;;;5040414;28;20213;-72
2022/07/28 10:22:33;;;;;;;1.25;0.98;;;14.70;99.90;;;;;;5036861;28;20198;-72
2022/07/28 10:25:11;;;;;;;1.55;1.02;;;14.60;99.90;;;;;;5041293;28;20744;-73
2022/07/28 10:27:43;;;;;;;2.58;1.00;;;14.60;99.90;;;;;;5043933;28;20209;-73
2022/07/28 10:30:15;;;;;;;2.38;1.00;;;14.50;99.90;;;;;;5048365;28;20218;-78
2022/07/28 10:32:47;;;;;;;2.40;1.10;;;14.50;99.90;;;;;;5029358;28;20193;-72
2022/07/28 10:35:18;;;;;;;1.48;1.00;;;14.50;99.90;;;;;;5044137;28;20190;-72
2022/07/28 10:37:54;;;;;;;3.30;1.38;;;14.50;99.90;;;;;;5048442;28;20270;-72
2022/07/28 10:40:29;;;;;;;1.73;0.95;;;14.50;99.90;;;;;;5036754;28;20190;-72
2022/07/28 10:43:01;;;;;;;3.60;1.13;;;14.40;99.90;;;;;;5048619;28;20217;-72
2022/07/28 10:45:32;;;;;;;3.47;1.13;;;14.40;99.90;;;;;;5044010;28;20201;-71
2022/07/28 10:48:04;;;;;;;2.58;1.20;;;14.40;99.90;;;;;;5045058;28;20197;-74
2022/07/28 10:50:36;;;;;;;1.55;0.90;;;14.40;99.90;;;;;;5046346;28;20189;-78
2022/07/28 10:53:08;;;;;;;1.60;1.10;;;14.40;99.90;;;;;;5043875;28;20194;-72
2022/07/28 10:55:50;;;;;;;1.85;0.82;;;14.40;99.90;;;;;;5036104;28;20197;-76
2022/07/28 10:58:34;;;;;;;2.95;0.80;;;14.40;99.90;;;;;;5039688;28;20195;-77
2022/07/28 11:01:05;;;;;;;1.40;0.85;;;14.50;99.90;;;;;;5016347;28;20187;-78
2022/07/28 11:03:45;;;;;;;3.60;0.82;;;14.50;99.90;;;;;;5044153;28;20185;-77
2022/07/28 11:06:33;;;;;;;1.60;0.90;;;14.50;99.90;;;;;;5048314;28;20817;-77
2022/07/28 11:09:24;;;;;;;1.55;0.80;;;14.60;99.90;;;;;;5042978;28;20185;-73
2022/07/28 11:11:58;;;;;;;2.53;0.98;;;14.60;99.90;;;;;;5046906;28;20196;-76
2022/07/28 11:14:36;;;;;;;1.95;0.85;;;14.60;99.90;;;;;;5047001;28;20186;-72
2022/07/28 11:17:22;;;;;;;4.25;0.80;;;14.60;99.90;;;;;;5047902;28;20193;-76
2022/07/28 11:19:59;;;;;;;1.35;0.80;;;14.60;99.90;;;;;;5035672;28;20662;-73
2022/07/28 11:22:31;;;;;;;0.93;0.65;;;14.60;99.90;;;;;;5050139;28;20193;-72
2022/07/28 11:25:16;;;;;;;1.70;0.70;;;14.60;99.90;;;;;;5055654;28;20263;-72
2022/07/28 11:28:07;;;;;;;1.92;0.50;;;14.60;99.90;;;;;;5045101;28;20680;-72
2022/07/28 11:30:57;;;;;;;0.90;0.70;;;14.60;99.90;;;;;;5046285;28;20225;-72
2022/07/28 11:33:47;;;;;;;1.10;0.63;;;14.60;99.90;;;;;;5038783;28;20214;-75
2022/07/28 11:36:18;;;;;;;2.83;0.60;;;14.60;99.90;;;;;;5034464;28;20283;-71
2022/07/28 11:39:26;;;;;;;1.70;0.70;;;14.60;99.90;;;;;;5036179;28;20190;-71
2022/07/28 11:41:57;;;;;;;1.70;0.80;;;14.50;99.90;;;;;;5035891;28;20193;-71
2022/07/28 11:44:31;;;;;;;1.17;0.88;;;14.50;99.90;;;;;;5035129;28;20186;-71
2022/07/28 11:47:18;;;;;;;1.33;0.88;;;14.50;99.90;;;;;;5036201;28;20210;-71
2022/07/28 11:50:10;;;;;;;1.77;0.80;;;14.50;99.90;;;;;;5035579;28;20201;-71
2022/07/28 11:52:41;;;;;;;1.58;0.75;;;14.50;99.90;;;;;;5040978;28;20221;-73
2022/07/28 11:55:20;;;;;;;1.98;0.70;;;14.40;99.90;;;;;;5036143;28;20195;-72
2022/07/28 11:57:51;;;;;;;1.15;0.75;;;14.40;99.90;;;;;;5034769;28;20192;-73
2022/07/28 12:00:25;;;;;;;3.28;0.90;;;14.40;99.90;;;;;;5036276;28;20201;-71
2022/07/28 12:02:56;;;;;;;1.52;0.70;;;14.30;99.90;;;;;;5046221;28;20652;-71
2022/07/28 12:05:27;;;;;;;1.35;0.80;;;14.30;99.90;;;;;;5034634;28;20186;-77
2022/07/28 12:07:57;;;;;;;1.52;0.70;;;14.30;99.90;;;;;;5034849;28;20233;-76
2022/07/28 12:10:34;;;;;;;2.15;0.70;;;14.30;99.90;;;;;;5034813;28;20650;-77
2022/07/28 12:13:07;;;;;;;2.00;0.80;;;14.30;99.90;;;;;;5034265;28;20185;-76
2022/07/28 12:15:39;;;;;;;1.40;0.73;;;14.20;99.90;;;;;;5034640;28;20205;-77
2022/07/28 12:18:13;;;;;;;1.45;0.63;;;14.20;99.90;;;;;;5034765;28;20197;-77
2022/07/28 12:20:51;;;;;;;1.52;0.77;;;14.20;99.90;;;;;;5034452;28;20210;-77
2022/07/28 12:23:32;;;;;;;1.45;0.77;;;14.20;99.90;;;;;;5034341;28;20194;-78
2022/07/28 12:26:03;;;;;;;1.17;0.63;;;14.20;99.90;;;;;;5034117;28;20621;-76
2022/07/28 12:28:34;;;;;;;0.73;0.60;;;14.20;99.90;;;;;;5033463;28;20244;-76
2022/07/28 12:31:16;;;;;;;0.77;0.70;;;14.10;99.90;;;;;;5034324;28;20551;-76
2022/07/28 12:33:47;;;;;;;1.60;0.80;;;14.10;99.90;;;;;;5034621;28;20226;-72
2022/07/28 12:36:20;;;;;;;1.52;0.60;;;14.10;99.90;;;;;;5034327;28;20360;-76
2022/07/28 12:38:51;;;;;;;1.38;0.70;;;14.10;99.90;;;;;;5033911;28;20190;-77
2022/07/28 12:41:22;;;;;;;3.35;0.70;;;14.00;99.90;;;;;;5034182;28;20226;-77
2022/07/28 12:43:54;;;;;;;0.73;0.60;;;14.10;99.90;;;;;;5033932;28;20210;-76
2022/07/28 12:46:27;;;;;;;1.25;0.70;;;14.00;99.90;;;;;;5033835;28;20284;-77
2022/07/28 12:48:59;;;;;;;1.55;0.80;;;14.00;99.90;;;;;;5032977;28;20190;-77
2022/07/28 12:51:37;;;;;;;0.70;0.70;;;14.00;99.90;;;;;;5034020;28;20244;-77
2022/07/28 12:54:08;;;;;;;1.17;0.70;;;14.00;99.90;;;;;;5034306;28;20881;-75
2022/07/28 12:56:51;;;;;;;2.30;0.85;;;13.90;99.90;;;;;;5028950;28;20297;-77
2022/07/28 12:59:22;;;;;;;1.45;0.60;;;13.90;99.90;;;;;;5033873;28;20712;-77
2022/07/28 13:01:56;;;;;;;1.00;0.80;;;13.90;99.90;;;;;;5033358;28;20198;-76
2022/07/28 13:04:46;;;;;;;1.13;0.80;;;13.90;99.90;;;;;;5032617;28;20186;-77
2022/07/28 13:07:28;;;;;;;1.42;0.80;;;13.90;99.90;;;;;;5033762;28;20217;-75
2022/07/28 13:10:05;;;;;;;3.03;0.90;;;13.90;99.90;;;;;;5033771;28;20248;-76
2022/07/28 13:12:37;;;;;;;1.40;0.80;;;13.90;99.90;;;;;;5033039;28;20189;-77
2022/07/28 13:15:16;;;;;;;0.93;0.63;;;13.80;99.90;;;;;;5033617;28;20190;-77
2022/07/28 13:17:55;;;;;;;0.65;0.63;;;13.90;99.90;;;;;;5033387;28;20197;-76
2022/07/28 13:20:27;;;;;;;1.20;0.70;;;13.80;99.90;;;;;;5033676;28;20209;-77
2022/07/28 13:22:58;;;;;;;0.90;0.70;;;13.80;99.90;;;;;;5033453;28;20601;-72